createdAt,value
2017-12-05T00:01:40.777Z,31.42
2017-12-05T00:04:07.568Z,31.15
2017-12-05T00:06:34.312Z,32.70
2017-12-05T00:09:01.052Z,31.58
2017-12-05T00:11:27.792Z,33.47
2017-12-05T00:13:54.579Z,35.10
2017-12-05T00:16:21.326Z,33.15
2017-12-05T00:18:48.114Z,32.63
2017-12-05T00:21:14.856Z,31.58
2017-12-05T00:23:41.597Z,28.80
2017-12-05T00:26:08.428Z,29.52
2017-12-05T00:28:35.185Z,27.62
2017-12-05T00:31:01.952Z,27.17
2017-12-05T00:33:28.703Z,27.98
2017-12-05T00:35:55.451Z,27.42
2017-12-05T00:38:22.202Z,26.15
2017-12-05T00:40:48.977Z,27.17
2017-12-05T00:43:15.758Z,28.35
2017-12-05T00:45:42.526Z,26.87
2017-12-05T00:48:09.333Z,26.75
2017-12-05T00:50:36.087Z,29.10
2017-12-05T00:53:02.833Z,28.00
2017-12-05T00:55:29.589Z,27.00
2017-12-05T00:57:56.332Z,27.48
2017-12-05T01:00:23.075Z,30.08
2017-12-05T01:02:49.807Z,26.92
2017-12-05T01:05:16.554Z,28.38
2017-12-05T01:07:43.273Z,29.12
2017-12-05T01:10:10.080Z,27.98
2017-12-05T01:12:36.836Z,28.58
2017-12-05T01:15:03.574Z,26.37
2017-12-05T01:17:30.307Z,27.27
2017-12-05T01:19:57.038Z,26.77
2017-12-05T01:22:23.791Z,26.62
2017-12-05T01:24:50.661Z,30.50
2017-12-05T01:27:17.391Z,27.30
2017-12-05T01:29:44.117Z,24.80
2017-12-05T01:32:10.861Z,28.00
2017-12-05T01:34:37.604Z,28.87
2017-12-05T01:37:04.365Z,29.33
2017-12-05T01:39:31.136Z,28.58
2017-12-05T01:41:57.908Z,28.58
2017-12-05T01:44:24.650Z,30.92
2017-12-05T01:46:51.475Z,29.08
2017-12-05T01:49:18.253Z,29.42
2017-12-05T01:51:45.004Z,29.92
2017-12-05T01:54:11.808Z,29.12
2017-12-05T01:56:38.562Z,28.95
2017-12-05T01:59:05.357Z,31.58
2017-12-05T02:01:32.248Z,27.75
2017-12-05T02:03:59.118Z,27.87
2017-12-05T02:06:25.894Z,28.50
2017-12-05T02:08:52.683Z,29.55
2017-12-05T02:11:19.445Z,27.25
2017-12-05T02:13:46.249Z,28.17
2017-12-05T02:16:13.020Z,28.83
2017-12-05T02:18:39.793Z,28.25
2017-12-05T02:21:06.584Z,29.20
2017-12-05T02:23:33.350Z,27.23
2017-12-05T02:26:00.142Z,27.05
2017-12-05T02:28:26.899Z,27.77
2017-12-05T02:30:53.658Z,28.20
2017-12-05T02:33:20.398Z,30.08
2017-12-05T02:35:47.135Z,28.90
2017-12-05T02:38:13.875Z,28.77
2017-12-05T02:40:46.655Z,28.77
2017-12-05T02:43:13.379Z,28.98
2017-12-05T02:45:40.207Z,26.77
2017-12-05T02:48:06.968Z,28.35
2017-12-05T02:50:33.726Z,30.23
2017-12-05T02:53:00.486Z,27.15
2017-12-05T02:55:27.265Z,27.70
2017-12-05T02:57:54.069Z,30.90
2017-12-05T03:00:20.868Z,27.90
2017-12-05T03:02:47.653Z,27.55
2017-12-05T03:05:14.459Z,26.05
2017-12-05T03:07:41.268Z,27.85
2017-12-05T03:10:08.015Z,30.17
2017-12-05T03:12:34.822Z,27.83
2017-12-05T03:15:01.588Z,28.87
2017-12-05T03:17:28.350Z,28.73
2017-12-05T03:19:55.107Z,27.58
2017-12-05T03:22:21.832Z,29.85
2017-12-05T03:24:48.576Z,27.83
2017-12-05T03:27:15.309Z,26.73
2017-12-05T03:29:42.069Z,26.67
2017-12-05T03:32:08.793Z,29.33
2017-12-05T03:34:35.537Z,29.70
2017-12-05T03:37:02.292Z,27.30
2017-12-05T03:39:29.050Z,27.27
2017-12-05T03:41:55.791Z,26.37
2017-12-05T03:44:22.550Z,28.33
2017-12-05T03:46:49.327Z,26.90
2017-12-05T03:49:16.039Z,29.35
2017-12-05T03:51:42.783Z,29.12
2017-12-05T03:54:09.599Z,28.15
2017-12-05T03:56:36.339Z,31.23
2017-12-05T03:59:03.092Z,28.35
2017-12-05T04:01:29.846Z,28.00
2017-12-05T04:03:56.583Z,27.75
2017-12-05T04:06:23.330Z,28.30
2017-12-05T04:08:50.086Z,28.60
2017-12-05T04:11:16.878Z,29.40
2017-12-05T04:13:43.642Z,29.52
2017-12-05T04:16:10.367Z,30.80
2017-12-05T04:18:37.094Z,29.63
2017-12-05T04:21:03.879Z,27.87
2017-12-05T04:23:30.613Z,30.17
2017-12-05T04:25:57.363Z,29.15
2017-12-05T04:28:24.118Z,28.48
2017-12-05T04:30:50.944Z,29.35
2017-12-05T04:33:17.686Z,29.17
2017-12-05T04:35:44.527Z,29.25
2017-12-05T04:38:11.286Z,30.65
2017-12-05T04:40:38.030Z,29.02
2017-12-05T04:43:04.808Z,27.80
2017-12-05T04:45:31.579Z,28.40
2017-12-05T04:47:58.326Z,30.25
2017-12-05T04:50:25.071Z,29.58
2017-12-05T04:52:51.840Z,29.20
2017-12-05T04:55:18.624Z,29.15
2017-12-05T04:57:45.384Z,28.20
2017-12-05T05:00:12.150Z,29.50
2017-12-05T05:02:38.915Z,29.12
2017-12-05T05:05:05.712Z,28.62
2017-12-05T05:07:32.450Z,28.45
2017-12-05T05:09:59.181Z,28.80
2017-12-05T05:12:25.961Z,28.40
2017-12-05T05:14:52.686Z,30.92
2017-12-05T05:17:19.450Z,31.37
2017-12-05T05:19:46.296Z,29.48
2017-12-05T05:22:13.058Z,29.10
2017-12-05T05:24:39.783Z,29.33
2017-12-05T05:27:06.556Z,25.62
2017-12-05T05:29:33.320Z,26.25
2017-12-05T05:32:00.055Z,28.55
2017-12-05T05:34:26.891Z,26.62
2017-12-05T05:36:53.627Z,27.45
2017-12-05T05:39:20.374Z,26.85
2017-12-05T05:41:47.201Z,25.27
2017-12-05T05:44:13.970Z,26.77
2017-12-05T05:46:40.719Z,27.05
2017-12-05T05:49:07.471Z,28.23
2017-12-05T05:51:34.206Z,26.12
2017-12-05T05:54:00.940Z,26.80
2017-12-05T05:56:27.685Z,25.75
2017-12-05T05:58:54.427Z,26.40
2017-12-05T06:01:21.168Z,24.85
2017-12-05T06:03:47.929Z,25.65
2017-12-05T06:06:14.654Z,26.62
2017-12-05T06:08:41.451Z,23.87
2017-12-05T06:11:08.194Z,21.83
2017-12-05T06:13:34.939Z,22.73
2017-12-05T06:16:01.662Z,23.35
2017-12-05T06:18:28.421Z,22.17
2017-12-05T06:20:55.186Z,22.73
2017-12-05T06:23:21.939Z,22.33
2017-12-05T06:25:48.694Z,21.85
2017-12-05T06:28:15.427Z,21.33
2017-12-05T06:30:42.187Z,22.08
2017-12-05T06:33:08.937Z,21.02
2017-12-05T06:35:35.675Z,21.15
2017-12-05T06:38:02.420Z,20.05
2017-12-05T06:40:29.177Z,19.67
2017-12-05T06:42:55.900Z,20.60
2017-12-05T06:45:22.670Z,19.85
2017-12-05T06:47:49.404Z,21.40
2017-12-05T06:50:16.214Z,20.50
2017-12-05T06:52:43.020Z,18.98
2017-12-05T06:55:09.843Z,18.80
2017-12-05T06:57:36.583Z,17.98
2017-12-05T07:00:03.345Z,18.67
2017-12-05T07:02:30.116Z,17.40
2017-12-05T07:04:56.866Z,18.48
2017-12-05T07:07:23.637Z,17.80
2017-12-05T07:09:50.387Z,17.75
2017-12-05T07:12:17.138Z,16.73
2017-12-05T07:14:43.892Z,18.02
2017-12-05T07:17:10.633Z,17.35
2017-12-05T07:19:37.377Z,19.25
2017-12-05T07:22:04.138Z,19.27
2017-12-05T07:24:30.953Z,16.60
2017-12-05T07:26:57.727Z,16.98
2017-12-05T07:29:24.470Z,19.70
2017-12-05T07:31:51.244Z,19.00
2017-12-05T07:34:18.006Z,18.67
2017-12-05T07:36:44.745Z,13.32
2017-12-05T07:39:11.495Z,11.70
2017-12-05T07:41:38.237Z,13.93
2017-12-05T07:44:04.979Z,15.65
2017-12-05T07:46:31.742Z,11.98
2017-12-05T07:48:58.473Z,11.95
2017-12-05T07:51:25.229Z,20.52
2017-12-05T07:53:51.958Z,22.83
2017-12-05T07:56:18.718Z,25.37
2017-12-05T07:58:45.464Z,27.58
2017-12-05T08:01:12.235Z,25.15
2017-12-05T08:03:38.959Z,25.42
2017-12-05T08:06:05.746Z,29.65
2017-12-05T08:08:32.535Z,32.20
2017-12-05T08:10:59.305Z,35.15
2017-12-05T08:13:26.047Z,37.70
2017-12-05T08:15:52.814Z,43.80
2017-12-05T08:18:19.604Z,44.78
2017-12-05T08:20:46.381Z,46.63
2017-12-05T08:23:13.166Z,44.72
2017-12-05T08:25:39.982Z,39.17
2017-12-05T08:28:06.756Z,36.40
2017-12-05T08:30:33.507Z,38.03
2017-12-05T08:33:00.251Z,34.65
2017-12-05T08:35:27.006Z,34.65
2017-12-05T08:37:53.770Z,35.50
2017-12-05T08:40:20.558Z,36.95
2017-12-05T08:42:47.285Z,35.95
2017-12-05T08:45:14.040Z,33.40
2017-12-05T08:47:40.796Z,34.38
2017-12-05T08:50:07.565Z,34.28
2017-12-05T08:52:34.352Z,35.17
2017-12-05T08:55:01.117Z,35.22
2017-12-05T08:57:27.895Z,32.92
2017-12-05T08:59:54.930Z,33.30
2017-12-05T09:02:21.680Z,33.50
2017-12-05T09:04:48.432Z,32.80
2017-12-05T09:07:15.202Z,30.92
2017-12-05T09:09:41.935Z,32.40
2017-12-05T09:12:08.685Z,35.35
2017-12-05T09:14:35.439Z,35.47
2017-12-05T09:17:02.181Z,35.20
2017-12-05T09:19:28.919Z,35.50
2017-12-05T09:21:55.687Z,34.97
2017-12-05T09:24:22.448Z,33.92
2017-12-05T09:26:49.198Z,33.70
2017-12-05T09:29:15.966Z,32.40
2017-12-05T09:31:42.729Z,35.37
2017-12-05T09:34:09.452Z,30.13
2017-12-05T09:36:36.213Z,29.50
2017-12-05T09:39:03.008Z,27.60
2017-12-05T09:41:29.737Z,28.87
2017-12-05T09:43:56.499Z,26.40
2017-12-05T09:46:23.368Z,25.87
2017-12-05T09:48:50.116Z,23.20
2017-12-05T09:51:16.875Z,21.83
2017-12-05T09:53:43.618Z,21.80
2017-12-05T09:56:10.320Z,22.60
2017-12-05T09:58:37.069Z,22.43
2017-12-05T10:01:03.806Z,23.60
2017-12-05T10:03:30.562Z,23.10
2017-12-05T10:05:57.336Z,21.97
2017-12-05T10:08:24.087Z,20.53
2017-12-05T10:10:50.830Z,18.10
2017-12-05T10:13:17.603Z,19.17
2017-12-05T10:15:44.349Z,17.00
2017-12-05T10:18:11.092Z,18.07
2017-12-05T10:20:37.824Z,16.00
2017-12-05T10:23:04.574Z,15.20
2017-12-05T10:25:31.309Z,14.30
2017-12-05T10:27:58.098Z,14.80
2017-12-05T10:30:24.853Z,13.90
2017-12-05T10:32:51.601Z,15.57
2017-12-05T10:35:18.368Z,16.73
2017-12-05T10:37:45.143Z,15.70
2017-12-05T10:40:11.890Z,16.60
2017-12-05T10:42:38.657Z,15.80
2017-12-05T10:45:05.454Z,17.30
2017-12-05T10:47:32.198Z,18.20
2017-12-05T10:49:58.939Z,16.50
2017-12-05T10:52:25.664Z,14.80
2017-12-05T10:54:52.398Z,16.03
2017-12-05T10:57:19.149Z,15.17
2017-12-05T10:59:45.885Z,16.00
2017-12-05T11:02:12.613Z,16.30
2017-12-05T11:04:39.381Z,16.10
2017-12-05T11:07:06.164Z,15.90
2017-12-05T11:09:32.909Z,16.00
2017-12-05T11:11:59.639Z,14.80
2017-12-05T11:14:26.450Z,14.47
2017-12-05T11:16:53.174Z,14.53
2017-12-05T11:19:19.889Z,13.50
2017-12-05T11:21:46.661Z,13.47
2017-12-05T11:24:13.414Z,13.07
2017-12-05T11:26:40.142Z,12.13
2017-12-05T11:29:06.886Z,12.50
2017-12-05T11:31:33.629Z,13.57
2017-12-05T11:34:00.370Z,12.10
2017-12-05T11:36:27.098Z,12.50
2017-12-05T11:38:53.808Z,12.33
2017-12-05T11:41:20.599Z,13.60
2017-12-05T11:43:47.345Z,13.40
2017-12-05T11:46:14.081Z,13.13
2017-12-05T11:48:40.808Z,14.80
2017-12-05T11:51:07.551Z,14.20
2017-12-05T11:53:34.309Z,13.70
2017-12-05T11:56:01.039Z,14.33
2017-12-05T11:58:27.797Z,14.23
2017-12-05T12:00:54.507Z,14.43
2017-12-05T12:03:21.293Z,15.47
2017-12-05T12:05:48.032Z,13.70
2017-12-05T12:08:14.789Z,14.53
2017-12-05T12:10:41.530Z,13.97
2017-12-05T12:13:08.235Z,14.07
2017-12-05T12:15:34.947Z,12.73
2017-12-05T12:18:01.659Z,12.90
2017-12-05T12:20:28.383Z,12.83
2017-12-05T12:22:55.116Z,13.70
2017-12-05T12:25:21.881Z,12.57
2017-12-05T12:27:48.615Z,13.00
2017-12-05T12:30:15.371Z,13.17
2017-12-05T12:32:42.089Z,12.73
2017-12-05T12:35:08.861Z,12.30
2017-12-05T12:37:35.597Z,13.40
2017-12-05T12:40:02.331Z,13.20
2017-12-05T12:42:29.049Z,12.33
2017-12-05T12:44:55.789Z,12.00
2017-12-05T12:47:22.510Z,12.87
2017-12-05T12:49:49.213Z,13.13
2017-12-05T12:52:15.950Z,13.40
2017-12-05T12:54:42.684Z,13.47
2017-12-05T12:57:09.413Z,14.60
2017-12-05T12:59:36.134Z,12.87
2017-12-05T13:02:02.851Z,12.27
2017-12-05T13:04:29.568Z,12.00
2017-12-05T13:06:56.286Z,13.97
2017-12-05T13:09:23.038Z,13.37
2017-12-05T13:11:49.812Z,13.30
2017-12-05T13:14:16.610Z,13.83
2017-12-05T13:16:43.370Z,14.13
2017-12-05T13:19:10.089Z,12.83
2017-12-05T13:21:36.800Z,11.03
2017-12-05T13:24:03.523Z,12.97
2017-12-05T13:26:30.286Z,12.73
2017-12-05T13:28:57.005Z,12.70
2017-12-05T13:31:23.735Z,12.23
2017-12-05T13:33:50.474Z,12.87
2017-12-05T13:36:17.222Z,11.13
2017-12-05T13:38:43.962Z,12.10
2017-12-05T13:41:10.687Z,12.23
2017-12-05T13:43:37.419Z,12.53
2017-12-05T13:46:04.155Z,12.27
2017-12-05T13:48:30.879Z,12.53
2017-12-05T13:50:57.593Z,12.10
2017-12-05T13:53:24.314Z,14.00
2017-12-05T13:55:51.029Z,11.87
2017-12-05T13:58:17.747Z,8.70
2017-12-05T14:00:44.497Z,9.10
2017-12-05T14:03:11.250Z,8.43
2017-12-05T14:05:37.986Z,9.70
2017-12-05T14:08:04.719Z,15.63
2017-12-05T14:10:31.477Z,19.10
2017-12-05T14:12:58.230Z,17.73
2017-12-05T14:15:24.946Z,18.23
2017-12-05T14:17:51.689Z,18.50
2017-12-05T14:20:18.442Z,11.10
2017-12-05T14:22:45.178Z,13.13
2017-12-05T14:25:11.922Z,12.80
2017-12-05T14:27:38.715Z,13.30
2017-12-05T14:30:05.470Z,12.70
2017-12-05T14:32:32.204Z,10.10
2017-12-05T14:34:58.930Z,10.13
2017-12-05T14:37:25.704Z,11.00
2017-12-05T14:39:52.429Z,9.20
2017-12-05T14:42:19.174Z,8.83
2017-12-05T14:44:45.889Z,7.30
2017-12-05T14:47:12.627Z,4.17
2017-12-05T14:49:39.350Z,3.97
2017-12-05T14:52:06.102Z,3.40
2017-12-05T14:54:32.843Z,1.50
2017-12-05T14:56:59.625Z,2.97
2017-12-05T14:59:26.371Z,1.10
2017-12-05T15:01:53.113Z,1.20
2017-12-05T15:04:19.854Z,1.00
2017-12-05T15:06:46.606Z,1.37
2017-12-05T15:09:13.336Z,1.00
2017-12-05T15:11:40.070Z,0.80
2017-12-05T15:14:06.796Z,2.00
2017-12-05T15:16:33.514Z,1.20
2017-12-05T15:19:00.276Z,1.23
2017-12-05T15:21:27.055Z,1.03
2017-12-05T15:23:53.793Z,1.03
2017-12-05T15:26:20.531Z,1.00
2017-12-05T15:28:47.293Z,1.40
2017-12-05T15:31:14.015Z,1.37
2017-12-05T15:33:40.759Z,1.47
2017-12-05T15:36:07.509Z,1.37
2017-12-05T15:38:34.221Z,1.20
2017-12-05T15:41:00.979Z,1.70
2017-12-05T15:43:27.751Z,1.33
2017-12-05T15:45:54.482Z,1.50
2017-12-05T15:48:21.282Z,1.23
2017-12-05T15:50:48.036Z,1.63
2017-12-05T15:53:14.746Z,1.60
2017-12-05T15:55:41.478Z,1.33
2017-12-05T15:58:08.257Z,1.20
2017-12-05T16:00:34.987Z,1.43
2017-12-05T16:03:01.719Z,1.13
2017-12-05T16:05:28.505Z,1.30
2017-12-05T16:07:55.277Z,1.10
2017-12-05T16:10:21.982Z,1.30
2017-12-05T16:12:48.733Z,0.80
2017-12-05T16:15:15.471Z,1.10
2017-12-05T16:17:42.205Z,1.30
2017-12-05T16:20:08.930Z,1.63
2017-12-05T16:22:35.653Z,1.10
2017-12-05T16:25:02.358Z,1.40
2017-12-05T16:27:29.106Z,1.03
2017-12-05T16:29:55.866Z,0.90
2017-12-05T16:32:22.613Z,1.30
2017-12-05T16:34:49.370Z,1.50
2017-12-05T16:37:16.103Z,1.30
2017-12-05T16:39:42.871Z,1.20
2017-12-05T16:42:09.605Z,2.20
2017-12-05T16:44:36.340Z,1.33
2017-12-05T16:47:03.156Z,1.50
2017-12-05T16:49:29.858Z,1.10
2017-12-05T16:51:56.566Z,1.80
2017-12-05T16:54:23.270Z,1.43
2017-12-05T16:56:50.007Z,1.20
2017-12-05T16:59:16.724Z,1.67
2017-12-05T17:01:43.484Z,1.07
2017-12-05T17:04:10.195Z,1.30
2017-12-05T17:06:36.984Z,1.47
2017-12-05T17:09:03.735Z,2.20
2017-12-05T17:11:30.508Z,1.60
2017-12-05T17:13:57.269Z,1.80
2017-12-05T17:16:23.994Z,1.57
2017-12-05T17:18:50.770Z,1.70
2017-12-05T17:21:17.542Z,1.87
2017-12-05T17:23:44.286Z,1.50
2017-12-05T17:26:11.014Z,2.07
2017-12-05T17:28:37.747Z,1.90
2017-12-05T17:31:04.529Z,2.90
2017-12-05T17:33:31.282Z,3.13
2017-12-05T17:35:58.005Z,2.80
2017-12-05T17:38:24.750Z,2.70
2017-12-05T17:40:51.493Z,2.37
2017-12-05T17:43:18.214Z,2.40
2017-12-05T17:45:44.940Z,3.10
2017-12-05T17:48:11.643Z,2.47
2017-12-05T17:50:38.361Z,2.23
2017-12-05T17:53:05.077Z,2.40
2017-12-05T17:55:31.804Z,3.20
2017-12-05T17:57:58.565Z,2.83
2017-12-05T18:00:25.311Z,3.27
2017-12-05T18:02:52.104Z,2.83
2017-12-05T18:05:18.888Z,3.63
2017-12-05T18:07:45.627Z,2.67
2017-12-05T18:10:12.386Z,3.27
2017-12-05T18:12:39.151Z,2.57
2017-12-05T18:15:06.065Z,1.60
2017-12-05T18:17:32.771Z,1.70
2017-12-05T18:19:59.545Z,2.50
2017-12-05T18:22:26.299Z,4.13
2017-12-05T18:24:53.138Z,3.80
2017-12-05T18:27:19.876Z,4.70
2017-12-05T18:29:46.611Z,5.30
2017-12-05T18:32:13.359Z,4.97
2017-12-05T18:34:40.099Z,4.23
2017-12-05T18:37:06.824Z,4.60
2017-12-05T18:39:33.588Z,4.67
2017-12-05T18:42:00.345Z,5.20
2017-12-05T18:44:27.092Z,6.20
2017-12-05T18:46:53.864Z,3.80
2017-12-05T18:49:20.647Z,4.23
2017-12-05T18:51:47.403Z,2.73
2017-12-05T18:54:14.167Z,3.20
2017-12-05T18:56:42.290Z,2.60
2017-12-05T18:59:09.190Z,1.93
2017-12-05T19:01:35.972Z,1.80
2017-12-05T19:04:02.713Z,1.63
2017-12-05T19:06:29.459Z,2.30
2017-12-05T19:08:56.227Z,2.23
2017-12-05T19:11:23.010Z,2.70
2017-12-05T19:13:49.755Z,2.57
2017-12-05T19:16:16.512Z,2.10
2017-12-05T19:18:43.285Z,1.50
2017-12-05T19:21:10.057Z,2.27
2017-12-05T19:23:36.845Z,2.37
2017-12-05T19:26:03.597Z,2.30
2017-12-05T19:28:30.395Z,1.90
2017-12-05T19:30:57.174Z,2.20
2017-12-05T19:33:23.939Z,2.03
2017-12-05T19:35:50.734Z,2.47
2017-12-05T19:38:17.534Z,2.33
2017-12-05T19:40:44.275Z,4.70
2017-12-05T19:43:11.028Z,3.93
2017-12-05T19:45:37.757Z,3.93
2017-12-05T19:48:04.521Z,3.83
2017-12-05T19:50:31.272Z,3.30
2017-12-05T19:52:58.080Z,3.10
2017-12-05T19:55:24.832Z,3.53
2017-12-05T19:57:51.558Z,3.50
2017-12-05T20:00:18.310Z,3.43
2017-12-05T20:02:45.087Z,2.97
2017-12-05T20:05:12.988Z,3.63
2017-12-05T20:07:40.187Z,2.60
2017-12-05T20:10:06.970Z,3.80
2017-12-05T20:12:33.727Z,4.70
2017-12-05T20:15:00.520Z,3.53
2017-12-05T20:17:27.265Z,3.53
2017-12-05T20:19:54.053Z,3.87
2017-12-05T20:22:20.825Z,3.90
2017-12-05T20:24:47.582Z,4.33
2017-12-05T20:27:14.321Z,4.23
2017-12-05T20:29:41.073Z,5.30
2017-12-05T20:32:07.830Z,6.10
2017-12-05T20:34:34.592Z,6.87
2017-12-05T20:37:01.323Z,4.80
2017-12-05T20:39:28.103Z,4.90
2017-12-05T20:41:54.884Z,5.27
2017-12-05T20:44:21.645Z,5.83
2017-12-05T20:46:48.391Z,5.57
2017-12-05T20:49:15.463Z,5.37
2017-12-05T20:51:42.225Z,5.60
2017-12-05T20:54:08.974Z,5.30
2017-12-05T20:56:35.680Z,5.03
2017-12-05T20:59:02.468Z,4.53
2017-12-05T21:01:29.215Z,4.90
2017-12-05T21:03:55.942Z,6.73
2017-12-05T21:06:22.719Z,6.77
2017-12-05T21:08:49.458Z,6.63
2017-12-05T21:11:16.215Z,8.83
2017-12-05T21:13:42.929Z,9.43
2017-12-05T21:16:09.646Z,10.40
2017-12-05T21:18:36.386Z,10.77
2017-12-05T21:21:03.122Z,11.83
2017-12-05T21:23:29.837Z,13.77
2017-12-05T21:25:56.562Z,12.75
2017-12-05T21:28:23.312Z,12.25
2017-12-05T21:30:50.043Z,10.87
2017-12-05T21:33:16.800Z,10.80
2017-12-05T21:35:44.461Z,13.20
2017-12-05T21:38:11.173Z,13.20
2017-12-05T21:40:37.912Z,13.38
2017-12-05T21:43:04.630Z,13.07
2017-12-05T21:45:31.355Z,13.07
2017-12-05T21:47:58.097Z,11.27
2017-12-05T21:50:24.839Z,11.83
2017-12-05T21:52:51.581Z,11.83
2017-12-05T21:55:18.312Z,10.65
2017-12-05T21:57:45.038Z,11.70
2017-12-05T22:00:11.783Z,12.35
2017-12-05T22:02:38.505Z,11.12
2017-12-05T22:05:05.415Z,12.05
2017-12-05T22:07:32.130Z,11.20
2017-12-05T22:09:58.871Z,10.30
2017-12-05T22:12:25.624Z,10.52
2017-12-05T22:14:52.334Z,10.43
2017-12-05T22:17:19.072Z,10.27
2017-12-05T22:19:45.823Z,10.10
2017-12-05T22:22:12.543Z,9.95
2017-12-05T22:24:39.255Z,9.67
2017-12-05T22:27:06.060Z,10.52
2017-12-05T22:29:32.807Z,10.20
2017-12-05T22:31:59.528Z,9.90
2017-12-05T22:34:26.277Z,9.15
2017-12-05T22:36:53.010Z,8.18
2017-12-05T22:39:19.766Z,9.82
2017-12-05T22:41:46.502Z,7.90
2017-12-05T22:44:13.242Z,7.30
2017-12-05T22:46:39.983Z,6.70
2017-12-05T22:49:06.725Z,6.72
2017-12-05T22:51:33.461Z,6.22
2017-12-05T22:54:00.170Z,7.47
2017-12-05T22:56:26.944Z,7.45
2017-12-05T22:58:53.655Z,7.43
2017-12-05T23:01:20.394Z,7.75
2017-12-05T23:03:47.126Z,7.60
2017-12-05T23:06:13.907Z,7.60
2017-12-05T23:08:40.634Z,6.78
2017-12-05T23:11:07.370Z,8.53
2017-12-05T23:13:34.085Z,6.60
2017-12-05T23:16:00.780Z,7.10
2017-12-05T23:18:27.533Z,6.00
2017-12-05T23:20:54.237Z,7.13
2017-12-05T23:23:20.947Z,5.80
2017-12-05T23:25:47.660Z,7.03
2017-12-05T23:28:14.407Z,6.43
2017-12-05T23:30:41.119Z,5.60
2017-12-05T23:33:07.853Z,6.20
2017-12-05T23:35:34.574Z,6.87
2017-12-05T23:38:01.286Z,6.23
2017-12-05T23:40:27.998Z,7.20
2017-12-05T23:42:54.693Z,6.40
2017-12-05T23:45:21.435Z,6.50
2017-12-05T23:47:48.160Z,5.40
2017-12-05T23:50:14.882Z,5.93
2017-12-05T23:52:41.611Z,5.03
2017-12-05T23:55:08.352Z,5.90
2017-12-05T23:57:35.055Z,5.60
